Terminal Aerodrome Forecast
Issued by NWS

Home | Current Version | Previous Version | Text Only | Print | Product List | Glossary On
Versions: 1 2 3 4 5 6 7 8 9 10 11 12 13 14 15 16 17 18
000
FTUS44 KHGX 111123
TAFCXO
TAF
KCXO 111123Z 1112/1212 13005KT P6SM VCSH BKN023 BKN035
      TEMPO 1113/1116 -RA SCT025 BKN035
     FM111600 16008KT 6SM BR SCT012 OVC025
     FM111900 19012G21KT 4SM BR SCT009 OVC012
     FM112000 17012KT P6SM BKN012
     FM120200 17010KT 4SM BR OVC007=

USA.gov is the U.S. government's official web portal to all federal, state and local government web resources and services.